createdAt,value
2023-04-18T00:00:57.882Z,98270.63
2023-04-18T00:03:24.834Z,98272.88
2023-04-18T00:05:51.872Z,98273.28
2023-04-18T00:08:18.372Z,98269.53
2023-04-18T00:10:44.853Z,98268.81
2023-04-18T00:13:12.112Z,98268.00
2023-04-18T00:15:38.651Z,98260.88
2023-04-18T00:18:06.083Z,98261.19
2023-04-18T00:20:32.995Z,98269.53
2023-04-18T00:23:00.662Z,98261.59
2023-04-18T00:25:27.132Z,98265.91
2023-04-18T00:27:53.815Z,98255.31
2023-04-18T00:30:20.317Z,98260.34
2023-04-18T00:32:46.853Z,98265.66
2023-04-18T00:35:13.427Z,98258.66
2023-04-18T00:37:39.983Z,98260.78
2023-04-18T00:40:06.833Z,98264.78
2023-04-18T00:42:33.717Z,98264.78
2023-04-18T00:45:01.195Z,98268.72
2023-04-18T00:47:27.731Z,98272.59
2023-04-18T00:49:54.401Z,98268.41
2023-04-18T00:52:20.862Z,98263.09
2023-04-18T00:54:47.342Z,98263.09
2023-04-18T00:57:13.893Z,98269.66
2023-04-18T00:59:40.406Z,98274.25
2023-04-18T01:02:07.056Z,98273.66
2023-04-18T01:04:33.763Z,98276.47
2023-04-18T01:07:01.381Z,98272.28
2023-04-18T01:09:28.362Z,98270.34
2023-04-18T01:11:54.964Z,98262.81
2023-04-18T01:14:21.695Z,98265.03
2023-04-18T01:16:51.144Z,98266.97
2023-04-18T01:19:17.710Z,98263.63
2023-04-18T01:21:44.196Z,98267.25
2023-04-18T01:24:14.919Z,98268.91
2023-04-18T01:26:43.632Z,98265.84
2023-04-18T01:29:10.258Z,98262.06
2023-04-18T01:31:37.389Z,98262.06
2023-04-18T01:34:04.500Z,98266.66
2023-04-18T01:36:31.985Z,98263.84
2023-04-18T01:38:59.059Z,98262.03
2023-04-18T01:41:25.725Z,98271.03
2023-04-18T01:43:52.242Z,98271.31
2023-04-18T01:46:18.781Z,98271.31
2023-04-18T01:48:45.779Z,98273.97
2023-04-18T01:51:12.302Z,98272.81
2023-04-18T01:53:38.760Z,98270.72
2023-04-18T01:56:05.511Z,98266.25
2023-04-18T01:58:32.064Z,98267.09
2023-04-18T02:00:58.543Z,98264.97
2023-04-18T02:03:25.457Z,98253.19
2023-04-18T02:05:52.072Z,98262.91
2023-04-18T02:08:18.586Z,98265.16
2023-04-18T02:10:45.273Z,98257.94
2023-04-18T02:13:11.745Z,98264.03
2023-04-18T02:15:38.232Z,98267.97
2023-04-18T02:18:04.804Z,98259.91
2023-04-18T02:20:34.863Z,98260.47
2023-04-18T02:23:01.953Z,98267.47
2023-04-18T02:25:29.299Z,98264.69
2023-04-18T02:27:56.165Z,98270.81
2023-04-18T02:30:23.249Z,98267.47
2023-04-18T02:32:53.534Z,98263.03
2023-04-18T02:35:20.507Z,98262.19
2023-04-18T02:37:46.968Z,98269.91
2023-04-18T02:40:13.704Z,98268.75
2023-04-18T02:42:40.287Z,98267.81
2023-04-18T02:45:07.625Z,98263.22
2023-04-18T02:47:43.520Z,98263.75
2023-04-18T02:50:18.087Z,98272.09
2023-04-18T02:52:44.674Z,98267.63
2023-04-18T02:55:11.124Z,98261.22
2023-04-18T02:57:37.591Z,98265.53
2023-04-18T03:00:06.435Z,98266.44
2023-04-18T03:02:33.127Z,98272.00
2023-04-18T03:04:59.751Z,98267.50
2023-04-18T03:07:26.402Z,98268.31
2023-04-18T03:09:52.888Z,98271.84
2023-04-18T03:12:19.433Z,98269.75
2023-04-18T03:14:45.924Z,98273.09
2023-04-18T03:17:12.389Z,98270.56
2023-04-18T03:19:38.909Z,98280.31
2023-04-18T03:22:06.105Z,98278.06
2023-04-18T03:24:32.588Z,98272.63
2023-04-18T03:27:00.461Z,98272.19
2023-04-18T03:29:27.087Z,98267.88
2023-04-18T03:31:53.554Z,98265.22
2023-04-18T03:34:20.403Z,98251.34
2023-04-18T03:36:48.231Z,98261.63
2023-04-18T03:39:14.857Z,98265.91
2023-04-18T03:41:41.397Z,98271.28
2023-04-18T03:44:08.889Z,98267.38
2023-04-18T03:46:35.424Z,98277.09
2023-04-18T03:49:01.984Z,98269.06
2023-04-18T03:51:41.596Z,98272.50
2023-04-18T03:54:08.098Z,98273.03
2023-04-18T03:56:34.779Z,98269.00
2023-04-18T03:59:01.322Z,98282.31
2023-04-18T04:01:27.848Z,98278.72
2023-04-18T04:03:54.559Z,98275.13
2023-04-18T04:06:21.266Z,98286.06
2023-04-18T04:08:47.732Z,98287.28
2023-04-18T04:11:14.267Z,98288.38
2023-04-18T04:13:40.798Z,98285.63
2023-04-18T04:16:07.624Z,98288.97
2023-04-18T04:18:34.141Z,98282.47
2023-04-18T04:21:00.688Z,98287.59
2023-04-18T04:23:27.184Z,98292.97
2023-04-18T04:25:54.018Z,98297.72
2023-04-18T04:28:23.812Z,98286.91
2023-04-18T04:30:53.811Z,98300.09
2023-04-18T04:33:20.554Z,98294.69
2023-04-18T04:35:47.191Z,98302.75
2023-04-18T04:38:15.261Z,98293.28
2023-04-18T04:40:42.211Z,98304.41
2023-04-18T04:43:12.806Z,98298.06
2023-04-18T04:45:41.433Z,98297.78
2023-04-18T04:48:08.410Z,98303.19
2023-04-18T04:50:38.621Z,98298.59
2023-04-18T04:53:06.327Z,98295.03
2023-04-18T04:55:33.108Z,98299.53
2023-04-18T04:57:59.718Z,98287.53
2023-04-18T05:00:26.371Z,98296.59
2023-04-18T05:02:55.773Z,98297.06
2023-04-18T05:05:22.753Z,98298.22
2023-04-18T05:07:49.302Z,98296.25
2023-04-18T05:10:15.776Z,98302.00
2023-04-18T05:12:42.258Z,98302.28
2023-04-18T05:15:09.068Z,98303.84
2023-04-18T05:17:35.642Z,98304.16
2023-04-18T05:20:02.221Z,98312.00
2023-04-18T05:22:28.778Z,98312.22
2023-04-18T05:24:55.268Z,98315.47
2023-04-18T05:27:21.818Z,98316.16
2023-04-18T05:29:50.232Z,98310.88
2023-04-18T05:32:16.853Z,98316.00
2023-04-18T05:34:43.429Z,98317.41
2023-04-18T05:37:09.902Z,98315.34
2023-04-18T05:39:36.399Z,98322.19
2023-04-18T05:42:03.354Z,98318.28
2023-04-18T05:44:30.198Z,98320.25
2023-04-18T05:46:56.658Z,98310.34
2023-04-18T05:49:23.676Z,98308.84
2023-04-18T05:51:50.619Z,98315.97
2023-04-18T05:54:17.139Z,98309.97
2023-04-18T05:56:43.798Z,98314.28
2023-04-18T05:59:10.503Z,98304.09
2023-04-18T06:01:36.959Z,98313.84
2023-04-18T06:04:03.663Z,98312.69
2023-04-18T06:06:31.421Z,98321.53
2023-04-18T06:08:57.959Z,98321.13
2023-04-18T06:11:25.100Z,98321.81
2023-04-18T06:13:51.600Z,98321.38
2023-04-18T06:16:18.169Z,98337.03
2023-04-18T06:18:44.761Z,98328.94
2023-04-18T06:21:11.218Z,98339.94
2023-04-18T06:23:38.499Z,98337.28
2023-04-18T06:26:05.065Z,98345.22
2023-04-18T06:28:31.615Z,98333.38
2023-04-18T06:30:58.118Z,98335.31
2023-04-18T06:33:24.633Z,98346.72
2023-04-18T06:35:51.139Z,98340.59
2023-04-18T06:38:17.647Z,98350.38
2023-04-18T06:40:44.211Z,98350.63
2023-04-18T06:43:10.738Z,98351.59
2023-04-18T06:45:37.242Z,98347.66
2023-04-18T06:48:04.086Z,98353.97
2023-04-18T06:50:30.758Z,98341.38
2023-04-18T06:52:57.252Z,98343.84
2023-04-18T06:55:23.763Z,98350.72
2023-04-18T06:57:50.288Z,98350.56
2023-04-18T07:00:16.983Z,98344.41
2023-04-18T07:02:43.668Z,98344.72
2023-04-18T07:05:10.795Z,98353.38
2023-04-18T07:07:37.353Z,98348.59
2023-04-18T07:10:04.392Z,98351.13
2023-04-18T07:12:30.930Z,98355.34
2023-04-18T07:14:57.491Z,98350.28
2023-04-18T07:17:24.096Z,98356.97
2023-04-18T07:19:50.594Z,98351.97
2023-04-18T07:22:17.076Z,98358.09
2023-04-18T07:24:44.175Z,98359.22
2023-04-18T07:27:10.652Z,98355.44
2023-04-18T07:29:37.117Z,98351.94
2023-04-18T07:32:04.268Z,98351.34
2023-04-18T07:34:31.485Z,98353.16
2023-04-18T07:36:58.037Z,98350.53
2023-04-18T07:39:24.545Z,98349.34
2023-04-18T07:41:51.141Z,98346.09
2023-04-18T07:44:18.231Z,98355.22
2023-04-18T07:46:44.862Z,98349.56
2023-04-18T07:49:11.607Z,98351.19
2023-04-18T07:51:38.223Z,98354.22
2023-04-18T07:54:04.756Z,98357.03
2023-04-18T07:56:31.231Z,98350.06
2023-04-18T07:58:57.748Z,98346.88
2023-04-18T08:01:27.300Z,98350.34
2023-04-18T08:03:55.157Z,98358.16
2023-04-18T08:06:21.760Z,98354.53
2023-04-18T08:08:48.305Z,98362.13
2023-04-18T08:11:14.774Z,98364.91
2023-04-18T08:13:41.257Z,98357.25
2023-04-18T08:16:07.868Z,98363.69
2023-04-18T08:18:35.093Z,98355.16
2023-04-18T08:21:01.560Z,98357.16
2023-04-18T08:23:28.260Z,98356.56
2023-04-18T08:25:54.790Z,98349.41
2023-04-18T08:28:21.471Z,98351.38
2023-04-18T08:30:49.180Z,98360.13
2023-04-18T08:33:16.180Z,98358.09
2023-04-18T08:35:43.091Z,98361.34
2023-04-18T08:38:09.855Z,98359.34
2023-04-18T08:40:37.435Z,98362.06
2023-04-18T08:43:04.925Z,98364.19
2023-04-18T08:45:31.610Z,98372.28
2023-04-18T08:48:01.398Z,98371.22
2023-04-18T08:50:27.972Z,98374.19
2023-04-18T08:52:54.549Z,98371.84
2023-04-18T08:55:22.357Z,98378.03
2023-04-18T08:57:50.346Z,98385.75
2023-04-18T09:00:17.923Z,98369.06
2023-04-18T09:02:44.911Z,98382.63
2023-04-18T09:05:16.580Z,98378.69
2023-04-18T09:07:43.160Z,98382.44
2023-04-18T09:10:10.074Z,98375.75
2023-04-18T09:12:46.345Z,98378.44
2023-04-18T09:15:15.641Z,98380.41
2023-04-18T09:17:45.339Z,98375.25
2023-04-18T09:20:12.934Z,98377.63
2023-04-18T09:22:52.682Z,98376.50
2023-04-18T09:25:34.963Z,98380.84
2023-04-18T09:28:02.173Z,98391.84
2023-04-18T09:30:29.832Z,98378.00
2023-04-18T09:33:00.303Z,98381.41
2023-04-18T09:35:27.199Z,98377.66
2023-04-18T09:37:53.675Z,98386.00
2023-04-18T09:40:20.565Z,98378.91
2023-04-18T09:42:48.104Z,98384.34
2023-04-18T09:45:15.444Z,98392.56
2023-04-18T09:47:42.081Z,98391.22
2023-04-18T09:50:09.492Z,98385.41
2023-04-18T09:52:40.106Z,98389.88
2023-04-18T09:55:08.651Z,98384.00
2023-04-18T09:57:35.830Z,98380.16
2023-04-18T10:00:16.294Z,98389.75
2023-04-18T10:02:50.330Z,98384.69
2023-04-18T10:05:19.511Z,98396.03
2023-04-18T10:07:48.903Z,98383.06
2023-04-18T10:10:15.790Z,98384.53
2023-04-18T10:12:42.403Z,98383.59
2023-04-18T10:15:09.727Z,98381.84
2023-04-18T10:18:14.845Z,98384.59
2023-04-18T10:20:41.732Z,98380.03
2023-04-18T10:23:38.095Z,98386.28
2023-04-18T10:26:08.424Z,98379.84
2023-04-18T10:28:53.621Z,98377.59
2023-04-18T10:31:27.484Z,98386.75
2023-04-18T10:36:30.146Z,98379.34
2023-04-18T10:39:00.816Z,98367.78
2023-04-18T10:41:27.978Z,98368.16
2023-04-18T10:44:09.353Z,98372.84
2023-04-18T10:46:36.757Z,98372.31
2023-04-18T10:49:34.178Z,98377.66
2023-04-18T10:52:01.384Z,98379.13
2023-04-18T10:54:39.267Z,98374.19
2023-04-18T10:57:07.524Z,98367.78
2023-04-18T10:59:37.480Z,98364.47
2023-04-18T11:02:33.245Z,98364.44
2023-04-18T11:05:01.222Z,98366.78
2023-04-18T11:07:37.207Z,98364.47
2023-04-18T11:10:04.873Z,98362.81
2023-04-18T11:12:32.647Z,98361.47
2023-04-18T11:15:01.557Z,98350.63
2023-04-18T11:17:29.505Z,98358.47
2023-04-18T11:20:00.678Z,98364.81
2023-04-18T11:22:27.236Z,98359.13
2023-04-18T11:25:07.932Z,98361.81
2023-04-18T11:27:34.466Z,98362.31
2023-04-18T11:30:01.125Z,98353.78
2023-04-18T11:32:27.798Z,98350.78
2023-04-18T11:34:54.635Z,98359.47
2023-04-18T11:37:21.454Z,98354.47
2023-04-18T11:39:48.019Z,98345.47
2023-04-18T11:42:14.525Z,98354.63
2023-04-18T11:44:44.907Z,98353.13
2023-04-18T11:47:24.606Z,98353.47
2023-04-18T11:50:00.757Z,98356.09
2023-04-18T11:52:28.406Z,98351.84
2023-04-18T11:54:55.047Z,98354.19
2023-04-18T11:57:39.906Z,98349.75
2023-04-18T12:00:07.580Z,98357.28
2023-04-18T12:02:45.012Z,98353.88
2023-04-18T12:05:14.542Z,98339.81
2023-04-18T12:07:42.360Z,98339.63
2023-04-18T12:10:20.924Z,98348.56
2023-04-18T12:12:51.202Z,98343.03
2023-04-18T12:15:18.055Z,98349.69
2023-04-18T12:17:45.409Z,98341.84
2023-04-18T12:20:13.416Z,98335.69
2023-04-18T12:22:44.750Z,98342.81
2023-04-18T12:25:26.929Z,98344.81
2023-04-18T12:28:00.880Z,98350.78
2023-04-18T12:30:28.770Z,98340.13
2023-04-18T12:32:59.827Z,98339.66
2023-04-18T12:35:26.620Z,98333.16
2023-04-18T12:37:54.570Z,98338.47
2023-04-18T12:40:21.934Z,98331.72
2023-04-18T12:42:48.791Z,98325.38
2023-04-18T12:45:15.660Z,98335.63
2023-04-18T12:47:43.420Z,98328.66
2023-04-18T12:50:11.602Z,98334.13
2023-04-18T12:52:39.352Z,98335.72
2023-04-18T12:55:06.950Z,98343.00
2023-04-18T12:57:33.520Z,98330.63
2023-04-18T13:00:00.148Z,98330.53
2023-04-18T13:02:29.046Z,98336.56
2023-04-18T13:04:56.493Z,98325.38
2023-04-18T13:07:23.032Z,98322.31
2023-04-18T13:09:49.491Z,98333.53
2023-04-18T13:12:15.985Z,98333.09
2023-04-18T13:14:42.565Z,98321.38
2023-04-18T13:17:09.276Z,98329.50
2023-04-18T13:19:35.894Z,98326.22
2023-04-18T13:22:03.069Z,98326.91
2023-04-18T13:24:29.575Z,98321.94
2023-04-18T13:26:56.572Z,98322.75
2023-04-18T13:29:23.115Z,98324.75
2023-04-18T13:31:49.697Z,98317.91
2023-04-18T13:34:16.219Z,98323.91
2023-04-18T13:36:42.970Z,98322.09
2023-04-18T13:39:10.555Z,98323.22
2023-04-18T13:41:37.059Z,98321.59
2023-04-18T13:44:03.626Z,98328.44
2023-04-18T13:46:30.999Z,98324.06
2023-04-18T13:48:57.643Z,98331.03
2023-04-18T13:51:24.183Z,98331.22
2023-04-18T13:53:51.604Z,98324.66
2023-04-18T13:56:18.074Z,98317.38
2023-04-18T13:58:44.613Z,98316.88
2023-04-18T14:01:11.873Z,98324.69
2023-04-18T14:03:39.959Z,98320.09
2023-04-18T14:06:08.059Z,98325.28
2023-04-18T14:08:34.553Z,98322.75
2023-04-18T14:11:01.022Z,98326.28
2023-04-18T14:13:27.519Z,98329.13
2023-04-18T14:15:54.158Z,98322.03
2023-04-18T14:18:21.813Z,98318.94
2023-04-18T14:20:48.642Z,98331.56
2023-04-18T14:23:15.910Z,98327.84
2023-04-18T14:25:42.618Z,98330.41
2023-04-18T14:28:10.930Z,98333.06
2023-04-18T14:30:38.089Z,98329.25
2023-04-18T14:33:04.816Z,98333.47
2023-04-18T14:35:31.792Z,98331.13
2023-04-18T14:37:58.286Z,98331.31
2023-04-18T14:40:24.772Z,98329.47
2023-04-18T14:42:51.296Z,98331.09
2023-04-18T14:45:17.847Z,98329.13
2023-04-18T14:47:44.403Z,98327.44
2023-04-18T14:50:14.103Z,98331.94
2023-04-18T14:52:40.913Z,98334.28
2023-04-18T14:55:08.339Z,98334.63
2023-04-18T14:57:36.157Z,98337.41
2023-04-18T15:00:05.413Z,98346.06
2023-04-18T15:02:32.223Z,98339.31
2023-04-18T15:04:59.209Z,98343.97
2023-04-18T15:07:26.134Z,98341.59
2023-04-18T15:09:52.631Z,98344.22
2023-04-18T15:12:19.182Z,98337.84
2023-04-18T15:14:45.713Z,98341.97
2023-04-18T15:17:12.154Z,98343.31
2023-04-18T15:19:38.654Z,98347.94
2023-04-18T15:22:05.174Z,98341.25
2023-04-18T15:24:31.641Z,98341.63
2023-04-18T15:26:58.766Z,98350.31
2023-04-18T15:29:25.379Z,98339.66
2023-04-18T15:31:51.938Z,98353.47
2023-04-18T15:34:18.520Z,98352.00
2023-04-18T15:36:46.865Z,98357.63
2023-04-18T15:39:13.714Z,98351.88
2023-04-18T15:41:42.083Z,98353.16
2023-04-18T15:44:08.615Z,98350.13
2023-04-18T15:46:36.717Z,98355.56
2023-04-18T15:49:03.272Z,98344.00
2023-04-18T15:51:30.239Z,98362.47
2023-04-18T15:53:56.752Z,98357.31
2023-04-18T15:56:27.550Z,98360.72
2023-04-18T15:58:57.133Z,98364.06
2023-04-18T16:01:23.767Z,98369.09
2023-04-18T16:03:50.608Z,98373.41
2023-04-18T16:06:19.008Z,98378.16
2023-04-18T16:08:45.572Z,98380.97
2023-04-18T16:11:12.069Z,98380.44
2023-04-18T16:13:38.657Z,98383.75
2023-04-18T16:16:05.761Z,98382.91
2023-04-18T16:18:32.440Z,98382.28
2023-04-18T16:20:59.005Z,98383.28
2023-04-18T16:23:26.113Z,98383.69
2023-04-18T16:25:55.207Z,98385.06
2023-04-18T16:28:22.066Z,98386.19
2023-04-18T16:30:48.658Z,98388.66
2023-04-18T16:33:15.606Z,98383.34
2023-04-18T16:35:42.227Z,98385.16
2023-04-18T16:38:08.715Z,98387.34
2023-04-18T16:40:35.656Z,98382.59
2023-04-18T16:43:02.288Z,98377.13
2023-04-18T16:45:28.831Z,98388.06
2023-04-18T16:47:55.541Z,98386.00
2023-04-18T16:50:22.648Z,98392.25
2023-04-18T16:52:49.365Z,98397.28
2023-04-18T16:55:16.011Z,98386.94
2023-04-18T16:57:42.543Z,98388.69
2023-04-18T17:00:10.198Z,98391.72
2023-04-18T17:02:39.712Z,98395.22
2023-04-18T17:05:06.662Z,98391.06
2023-04-18T17:07:33.262Z,98400.03
2023-04-18T17:09:59.753Z,98402.16
2023-04-18T17:12:26.504Z,98405.50
2023-04-18T17:14:52.994Z,98411.59
2023-04-18T17:17:19.673Z,98408.41
2023-04-18T17:19:46.484Z,98416.09
2023-04-18T17:22:12.971Z,98413.75
2023-04-18T17:24:39.539Z,98403.09
2023-04-18T17:27:06.042Z,98407.66
2023-04-18T17:29:32.595Z,98415.28
2023-04-18T17:31:59.209Z,98418.78
2023-04-18T17:34:25.865Z,98414.44
2023-04-18T17:36:52.362Z,98412.41
2023-04-18T17:39:18.915Z,98410.25
2023-04-18T17:41:45.880Z,98411.09
2023-04-18T17:44:12.331Z,98420.91
2023-04-18T17:46:39.018Z,98417.28
2023-04-18T17:49:05.584Z,98425.72
2023-04-18T17:51:32.085Z,98433.53
2023-04-18T17:53:58.740Z,98429.13
2023-04-18T17:56:25.558Z,98430.72
2023-04-18T17:58:52.616Z,98425.69
2023-04-18T18:01:21.090Z,98440.97
2023-04-18T18:03:48.314Z,98441.28
2023-04-18T18:06:15.353Z,98446.31
2023-04-18T18:08:43.013Z,98442.25
2023-04-18T18:11:10.592Z,98441.19
2023-04-18T18:13:38.859Z,98444.94
2023-04-18T18:16:06.115Z,98441.88
2023-04-18T18:18:32.712Z,98444.53
2023-04-18T18:20:59.178Z,98439.69
2023-04-18T18:23:25.793Z,98447.81
2023-04-18T18:25:52.420Z,98455.91
2023-04-18T18:28:19.166Z,98457.91
2023-04-18T18:30:45.677Z,98461.38
2023-04-18T18:33:12.170Z,98455.25
2023-04-18T18:35:38.727Z,98462.38
2023-04-18T18:38:05.366Z,98457.66
2023-04-18T18:40:31.925Z,98467.97
2023-04-18T18:42:59.338Z,98466.91
2023-04-18T18:45:26.340Z,98466.91
2023-04-18T18:47:52.950Z,98468.34
2023-04-18T18:50:19.572Z,98466.38
2023-04-18T18:52:46.147Z,98468.88
2023-04-18T18:55:12.674Z,98475.47
2023-04-18T18:57:39.192Z,98478.13
2023-04-18T19:00:09.654Z,98477.84
2023-04-18T19:02:36.348Z,98486.81
2023-04-18T19:05:03.767Z,98483.16
2023-04-18T19:07:30.541Z,98482.59
2023-04-18T19:09:57.085Z,98485.56
2023-04-18T19:12:23.552Z,98482.53
2023-04-18T19:14:50.680Z,98485.69
2023-04-18T19:17:19.118Z,98489.66
2023-04-18T19:19:45.679Z,98481.97
2023-04-18T19:22:12.247Z,98488.34
2023-04-18T19:24:38.785Z,98489.34
2023-04-18T19:27:05.298Z,98491.34
2023-04-18T19:29:32.879Z,98476.25
2023-04-18T19:31:59.634Z,98477.66
2023-04-18T19:34:26.118Z,98484.91
2023-04-18T19:36:52.644Z,98491.22
2023-04-18T19:39:19.143Z,98486.22
2023-04-18T19:41:45.992Z,98480.19
2023-04-18T19:44:12.534Z,98487.88
2023-04-18T19:46:39.308Z,98491.94
2023-04-18T19:49:05.884Z,98494.19
2023-04-18T19:51:32.423Z,98490.00
2023-04-18T19:53:58.945Z,98484.41
2023-04-18T19:56:25.430Z,98490.81
2023-04-18T19:58:51.991Z,98496.97
2023-04-18T20:01:19.153Z,98490.81
2023-04-18T20:03:47.022Z,98495.84
2023-04-18T20:06:13.768Z,98487.19
2023-04-18T20:08:45.010Z,98496.44
2023-04-18T20:11:12.031Z,98491.53
2023-04-18T20:13:38.571Z,98489.44
2023-04-18T20:16:05.589Z,98487.19
2023-04-18T20:18:33.832Z,98495.16
2023-04-18T20:21:00.760Z,98493.63
2023-04-18T20:23:27.274Z,98487.63
2023-04-18T20:25:53.754Z,98492.25
2023-04-18T20:28:20.536Z,98488.47
2023-04-18T20:30:47.961Z,98478.81
2023-04-18T20:33:14.606Z,98484.44
2023-04-18T20:35:41.518Z,98480.38
2023-04-18T20:38:09.810Z,98486.69
2023-04-18T20:40:37.156Z,98491.69
2023-04-18T20:43:03.704Z,98483.88
2023-04-18T20:45:30.203Z,98487.53
2023-04-18T20:47:56.845Z,98488.34
2023-04-18T20:50:23.422Z,98488.63
2023-04-18T20:52:49.882Z,98481.50
2023-04-18T20:55:18.210Z,98487.09
2023-04-18T20:57:44.906Z,98487.38
2023-04-18T21:00:13.866Z,98483.19
2023-04-18T21:02:41.444Z,98485.31
2023-04-18T21:05:08.254Z,98478.00
2023-04-18T21:07:35.306Z,98485.47
2023-04-18T21:10:04.927Z,98483.63
2023-04-18T21:12:31.420Z,98482.66
2023-04-18T21:14:57.891Z,98477.63
2023-04-18T21:17:25.604Z,98481.81
2023-04-18T21:19:52.539Z,98474.69
2023-04-18T21:22:19.052Z,98485.59
2023-04-18T21:24:46.724Z,98479.28
2023-04-18T21:27:13.738Z,98489.38
2023-04-18T21:29:40.651Z,98483.91
2023-04-18T21:32:07.124Z,98492.56
2023-04-18T21:34:33.673Z,98488.94
2023-04-18T21:37:00.490Z,98489.22
2023-04-18T21:39:27.364Z,98491.59
2023-04-18T21:41:53.842Z,98484.91
2023-04-18T21:44:20.361Z,98489.22
2023-04-18T21:46:46.922Z,98483.91
2023-04-18T21:49:13.489Z,98484.19
2023-04-18T21:51:39.986Z,98480.84
2023-04-18T21:54:07.650Z,98481.53
2023-04-18T21:56:34.210Z,98482.53
2023-04-18T21:59:00.900Z,98475.28
2023-04-18T22:01:27.454Z,98479.59
2023-04-18T22:03:54.077Z,98490.50
2023-04-18T22:06:20.736Z,98483.91
2023-04-18T22:08:48.140Z,98480.59
2023-04-18T22:11:15.725Z,98478.59
2023-04-18T22:13:44.532Z,98475.28
2023-04-18T22:16:11.016Z,98477.94
2023-04-18T22:18:38.165Z,98478.88
2023-04-18T22:21:04.795Z,98475.94
2023-04-18T22:23:31.376Z,98471.63
2023-04-18T22:25:57.917Z,98476.63
2023-04-18T22:28:24.507Z,98476.34
2023-04-18T22:30:51.283Z,98473.44
2023-04-18T22:33:17.895Z,98469.66
2023-04-18T22:35:46.146Z,98471.47
2023-04-18T22:38:12.613Z,98462.66
2023-04-18T22:40:39.112Z,98465.31
2023-04-18T22:43:05.562Z,98464.66
2023-04-18T22:45:33.586Z,98455.38
2023-04-18T22:48:00.431Z,98460.00
2023-04-18T22:50:27.354Z,98459.03
2023-04-18T22:52:53.856Z,98462.94
2023-04-18T22:55:20.527Z,98459.91
2023-04-18T22:57:47.071Z,98449.00
2023-04-18T23:00:14.024Z,98461.59
2023-04-18T23:02:40.808Z,98464.94
2023-04-18T23:05:07.946Z,98456.28
2023-04-18T23:07:34.451Z,98456.28
2023-04-18T23:10:00.910Z,98454.31
2023-04-18T23:12:27.741Z,98460.44
2023-04-18T23:14:54.207Z,98452.31
2023-04-18T23:17:20.990Z,98455.97
2023-04-18T23:19:47.499Z,98459.03
2023-04-18T23:22:13.970Z,98461.16
2023-04-18T23:24:40.583Z,98455.44
2023-04-18T23:27:07.146Z,98455.56
2023-04-18T23:29:37.695Z,98453.22
2023-04-18T23:32:04.708Z,98447.59
2023-04-18T23:34:31.829Z,98452.25
2023-04-18T23:36:58.295Z,98453.75
2023-04-18T23:39:26.239Z,98457.81
2023-04-18T23:41:52.696Z,98458.53
2023-04-18T23:44:19.152Z,98453.50
2023-04-18T23:46:45.928Z,98452.53
2023-04-18T23:49:12.437Z,98444.28
2023-04-18T23:51:38.884Z,98442.88
2023-04-18T23:54:05.572Z,98445.78
2023-04-18T23:56:32.171Z,98441.47
2023-04-18T23:58:58.645Z,98442.06
